Time;durP1;ratioP1;P1;durP2;ratioP2;P2;SDS_P1;SDS_P2;PMS_P1;PMS_P2;Temp;Humidity;BMP_temperature;BMP_pressure;BME280_temperature;BME280_humidity;BME280_pressure;Samples;Min_cycle;Max_cycle;Signal;HPM_P1;HPM_P2
2022/04/14 00:00:53;;;;;;;12.00;4.90;;;;;6.10;97986.60;;;;110667;1251;41955;-61
2022/04/14 00:03:23;;;;;;;16.20;6.00;;;;;6.08;97986.00;;;;110702;1251;42412;-61
2022/04/14 00:05:54;;;;;;;15.90;6.50;;;;;6.10;97985.60;;;;110602;1253;42382;-60
2022/04/14 00:08:24;;;;;;;14.40;6.70;;;;;6.00;97989.20;;;;110704;1251;42004;-60
2022/04/14 00:10:54;;;;;;;12.40;5.40;;;;;5.86;97991.00;;;;110420;1253;41188;-58
2022/04/14 00:13:24;;;;;;;15.20;5.60;;;;;5.80;97989.60;;;;110650;1252;41730;-61
2022/04/14 00:15:55;;;;;;;14.60;6.00;;;;;5.70;97986.00;;;;110756;1251;41898;-62
2022/04/14 00:18:24;;;;;;;15.90;6.10;;;;;5.60;97987.40;;;;110814;1251;41177;-61
2022/04/14 00:20:54;;;;;;;13.40;5.70;;;;;5.60;97992.20;;;;110682;1251;41762;-61
2022/04/14 00:23:25;;;;;;;14.50;5.40;;;;;5.50;97990.40;;;;110582;1251;41650;-60
2022/04/14 00:25:55;;;;;;;;;;;;;5.50;97993.00;;;;110789;1251;42346;-61
2022/04/14 00:28:26;;;;;;;14.00;6.30;;;;;5.40;97990.20;;;;110806;1249;41558;-61
2022/04/14 00:30:55;;;;;;;15.10;6.40;;;;;5.40;97989.40;;;;110500;1252;41155;-61
2022/04/14 00:33:26;;;;;;;12.30;5.80;;;;;5.30;97990.60;;;;110538;1253;41262;-59
2022/04/14 00:35:56;;;;;;;12.10;5.80;;;;;5.24;97989.20;;;;110755;1252;41150;-60
2022/04/14 00:38:26;;;;;;;15.10;5.60;;;;;5.20;97988.80;;;;110741;1251;41175;-60
2022/04/14 00:40:57;;;;;;;20.70;7.30;;;;;5.12;97983.00;;;;110719;1251;41706;-59
2022/04/14 00:43:32;;;;;;;19.60;7.40;;;;;5.10;97981.60;;;;110730;1250;41830;-60
2022/04/14 00:46:03;;;;;;;13.10;6.60;;;;;5.10;97975.80;;;;110608;1253;43012;-60
2022/04/14 00:48:33;;;;;;;12.00;5.80;;;;;5.08;97980.60;;;;110637;1252;41147;-61
2022/04/14 00:51:06;;;;;;;14.00;6.40;;;;;5.00;97982.60;;;;110654;1252;42530;-60
2022/04/14 00:53:39;;;;;;;14.80;6.90;;;;;4.90;97975.20;;;;110612;1253;41496;-60
2022/04/14 00:56:10;;;;;;;14.10;6.10;;;;;4.90;97974.40;;;;110605;1251;41953;-61
2022/04/14 00:58:41;;;;;;;14.70;6.10;;;;;4.90;97976.40;;;;110744;1251;41154;-60
2022/04/14 01:01:12;;;;;;;12.20;5.90;;;;;4.80;97981.40;;;;110752;1251;42393;-60
2022/04/14 01:03:45;;;;;;;13.80;5.90;;;;;4.80;97982.60;;;;110623;1252;41147;-59
2022/04/14 01:06:15;;;;;;;13.70;6.50;;;;;4.70;97982.80;;;;110780;1249;42240;-59
2022/04/14 01:11:36;;;;;;;15.00;6.30;;;;;4.68;97981.40;;;;110744;1251;41155;-61
2022/04/14 01:14:07;;;;;;;14.00;6.50;;;;;4.60;97981.40;;;;110791;1249;41152;-60
2022/04/14 01:16:38;;;;;;;15.00;6.10;;;;;4.60;97978.60;;;;110840;1249;41145;-61
2022/04/14 01:19:09;;;;;;;13.00;5.90;;;;;4.60;97981.40;;;;110815;1250;41843;-60
2022/04/14 01:21:44;;;;;;;16.30;6.20;;;;;4.54;97982.20;;;;110677;1252;41761;-61
2022/04/14 01:24:14;;;;;;;14.00;5.50;;;;;4.50;97991.20;;;;110648;1251;41301;-59
2022/04/14 01:26:44;;;;;;;13.80;5.70;;;;;4.50;97992.00;;;;110763;1250;41133;-60
2022/04/14 01:29:22;;;;;;;;;;;;;4.42;97992.20;;;;110642;1252;42019;-60
2022/04/14 01:31:54;;;;;;;13.10;5.50;;;;;4.40;97994.40;;;;110737;1250;41152;-61
2022/04/14 01:34:25;;;;;;;14.30;5.50;;;;;4.40;97996.20;;;;110619;1250;41954;-61
2022/04/14 01:37:00;;;;;;;;;;;;;4.40;97997.40;;;;110505;1252;41142;-61
2022/04/14 01:39:30;;;;;;;14.60;5.30;;;;;4.30;97999.00;;;;110720;1250;41147;-61
2022/04/14 01:42:00;;;;;;;13.80;5.10;;;;;4.30;97999.60;;;;110630;1252;41726;-61
2022/04/14 01:44:31;;;;;;;11.00;4.90;;;;;4.30;97997.60;;;;110727;1250;42987;-61
2022/04/14 01:47:02;;;;;;;13.10;5.50;;;;;4.30;97996.60;;;;110792;1249;41968;-61
2022/04/14 01:49:33;;;;;;;13.60;5.70;;;;;4.30;97995.20;;;;110844;1250;41143;-61
2022/04/14 01:52:04;;;;;;;15.30;5.30;;;;;4.28;97997.60;;;;110832;1249;41146;-61
2022/04/14 01:54:35;;;;;;;12.20;4.90;;;;;4.20;97995.40;;;;110792;1249;42000;-61
2022/04/14 01:57:05;;;;;;;12.80;5.10;;;;;4.20;97991.00;;;;110823;1249;41150;-61
2022/04/14 01:59:36;;;;;;;13.20;5.20;;;;;4.10;97985.00;;;;110516;1250;41734;-61
2022/04/14 02:02:06;;;;;;;11.30;4.70;;;;;4.10;97987.20;;;;110660;1252;42451;-61
2022/04/14 02:04:36;;;;;;;15.80;4.80;;;;;4.02;97988.20;;;;110714;1252;41315;-61
2022/04/14 02:07:07;;;;;;;12.20;4.50;;;;;4.00;97989.20;;;;110781;1250;41255;-58
2022/04/14 02:09:38;;;;;;;9.90;4.30;;;;;4.00;97986.80;;;;110793;1250;42404;-60
2022/04/14 02:12:09;;;;;;;12.20;4.30;;;;;4.00;97979.00;;;;110751;1251;41257;-59
2022/04/14 02:14:39;;;;;;;10.70;4.70;;;;;3.90;97977.40;;;;110536;1252;41164;-60
2022/04/14 02:17:10;;;;;;;9.60;4.10;;;;;3.90;97980.80;;;;110598;1252;41166;-60
2022/04/14 02:19:40;;;;;;;12.30;5.00;;;;;3.90;97981.20;;;;110531;1252;41268;-60
2022/04/14 02:22:10;;;;;;;10.80;4.70;;;;;3.90;97979.20;;;;110624;1252;41221;-60
2022/04/14 02:24:42;;;;;;;12.50;5.10;;;;;3.90;97978.60;;;;110605;1252;41304;-60
2022/04/14 02:27:12;;;;;;;12.50;5.70;;;;;3.80;97974.60;;;;110444;1252;41864;-60
2022/04/14 02:29:43;;;;;;;15.70;6.60;;;;;3.80;97975.80;;;;110529;1252;41645;-60
2022/04/14 02:32:13;;;;;;;12.90;5.60;;;;;3.70;97976.40;;;;110621;1250;41333;-60
2022/04/14 02:34:43;;;;;;;12.20;5.10;;;;;3.70;97973.80;;;;110699;1251;41908;-61
2022/04/14 02:37:13;;;;;;;14.20;6.10;;;;;3.70;97985.40;;;;110510;1251;42560;-60
2022/04/14 02:39:43;;;;;;;12.30;5.60;;;;;3.60;97982.20;;;;110732;1250;41146;-61
2022/04/14 02:42:13;;;;;;;16.40;7.20;;;;;3.60;97976.60;;;;110623;1252;41845;-61
2022/04/14 02:44:43;;;;;;;14.40;6.90;;;;;3.54;97976.80;;;;110670;1252;41720;-60
2022/04/14 02:47:13;;;;;;;17.30;6.20;;;;;3.50;97989.20;;;;110735;1252;41130;-61
2022/04/14 02:49:43;;;;;;;15.60;6.00;;;;;3.40;97987.80;;;;110570;1253;41146;-61
2022/04/14 02:52:14;;;;;;;13.60;5.30;;;;;3.40;97984.60;;;;110694;1252;41672;-60
2022/04/14 02:54:45;;;;;;;13.10;5.90;;;;;3.30;97989.60;;;;110606;1253;41706;-61
2022/04/14 02:57:15;;;;;;;13.90;5.80;;;;;3.30;97988.40;;;;110610;1252;41161;-61
2022/04/14 02:59:45;;;;;;;13.10;5.80;;;;;3.30;97993.60;;;;110674;1252;41692;-60
2022/04/14 03:02:16;;;;;;;11.20;5.30;;;;;3.30;97990.20;;;;110706;1252;41167;-60
2022/04/14 03:04:46;;;;;;;12.50;5.50;;;;;3.20;97998.40;;;;110507;1252;41241;-60
2022/04/14 03:07:16;;;;;;;12.90;5.50;;;;;3.20;97995.80;;;;110513;1252;41970;-61
2022/04/14 03:09:48;;;;;;;12.70;5.20;;;;;3.14;98000.20;;;;110764;1251;41146;-59
2022/04/14 03:12:18;;;;;;;13.60;5.20;;;;;3.10;97997.40;;;;110617;1252;41386;-60
2022/04/14 03:14:50;;;;;;;11.50;4.90;;;;;3.10;97997.00;;;;110670;1252;41262;-60
2022/04/14 03:17:19;;;;;;;12.60;5.00;;;;;3.02;97996.80;;;;110788;1250;41892;-60
2022/04/14 03:19:49;;;;;;;12.10;4.90;;;;;3.00;97992.20;;;;110788;1251;41150;-59
2022/04/14 03:22:20;;;;;;;11.40;4.50;;;;;3.00;97996.40;;;;110775;1251;41166;-59
2022/04/14 03:24:50;;;;;;;13.70;5.10;;;;;3.00;97999.80;;;;110785;1249;41246;-60
2022/04/14 03:27:20;;;;;;;13.20;5.80;;;;;3.00;98004.00;;;;110695;1250;41155;-61
2022/04/14 03:29:50;;;;;;;12.20;5.40;;;;;3.00;98000.60;;;;110792;1250;41139;-58
2022/04/14 03:32:22;;;;;;;12.80;5.20;;;;;3.00;98003.20;;;;110733;1251;41709;-60
2022/04/14 03:34:52;;;;;;;10.60;5.00;;;;;3.00;98000.40;;;;110582;1251;41155;-60
2022/04/14 03:37:23;;;;;;;10.60;5.20;;;;;3.00;97998.40;;;;110802;1250;41662;-60
2022/04/14 03:39:53;;;;;;;14.00;6.50;;;;;2.98;98005.60;;;;110759;1251;41269;-60
2022/04/14 03:42:22;;;;;;;15.20;7.40;;;;;2.90;98005.80;;;;110779;1251;41940;-60
2022/04/14 03:44:53;;;;;;;17.80;6.70;;;;;2.82;98006.80;;;;110829;1249;41157;-60
2022/04/14 03:47:22;;;;;;;12.30;5.60;;;;;2.78;98006.60;;;;110721;1249;41152;-60
2022/04/14 03:49:52;;;;;;;13.30;5.90;;;;;2.70;98011.40;;;;110735;1249;42839;-60
2022/04/14 03:52:21;;;;;;;13.10;5.80;;;;;2.70;98013.20;;;;110741;1249;41664;-60
2022/04/14 03:54:51;;;;;;;15.70;6.40;;;;;2.70;98017.40;;;;110599;1252;41350;-60
2022/04/14 03:57:21;;;;;;;12.70;5.60;;;;;2.70;98013.40;;;;110626;1251;41536;-60
2022/04/14 03:59:51;;;;;;;11.80;5.80;;;;;2.70;98017.20;;;;110718;1251;41268;-59
2022/04/14 04:02:21;;;;;;;11.90;5.10;;;;;2.72;98018.40;;;;110694;1250;41146;-60
2022/04/14 04:04:50;;;;;;;14.40;5.20;;;;;2.72;98018.20;;;;110540;1253;41226;-60
2022/04/14 04:07:20;;;;;;;13.00;6.00;;;;;2.80;98020.00;;;;110601;1252;41162;-59
2022/04/14 04:09:50;;;;;;;13.10;5.70;;;;;2.80;98017.40;;;;110738;1252;41377;-60
2022/04/14 04:12:21;;;;;;;15.40;6.30;;;;;2.82;98013.40;;;;110649;1252;42522;-60
2022/04/14 04:14:51;;;;;;;14.80;6.50;;;;;2.90;98010.00;;;;110724;1251;41913;-58
2022/04/14 04:17:20;;;;;;;16.80;6.60;;;;;2.90;98005.20;;;;110538;1253;42142;-58
2022/04/14 04:19:49;;;;;;;16.20;7.00;;;;;2.90;98011.00;;;;110753;1251;41605;-60
2022/04/14 04:22:19;;;;;;;16.90;7.30;;;;;3.00;98006.60;;;;110799;1252;41628;-60
2022/04/14 04:24:52;;;;;;;21.40;7.70;;;;;3.00;98008.20;;;;110758;1250;42367;-60
2022/04/14 04:27:21;;;;;;;14.80;7.00;;;;;3.08;98012.60;;;;110795;1250;41143;-60
2022/04/14 04:29:50;;;;;;;14.70;7.30;;;;;3.10;98022.60;;;;110821;1251;41148;-60
2022/04/14 04:32:20;;;;;;;16.30;6.80;;;;;3.20;98030.40;;;;110546;1253;41648;-60
2022/04/14 04:34:50;;;;;;;17.90;7.40;;;;;3.24;98029.80;;;;110609;1252;41158;-60
2022/04/14 04:37:19;;;;;;;22.70;9.60;;;;;3.30;98035.20;;;;110563;1252;41177;-60
2022/04/14 04:39:49;;;;;;;21.00;9.80;;;;;3.40;98035.60;;;;110609;1252;41147;-60
2022/04/14 04:42:18;;;;;;;19.90;8.60;;;;;3.50;98034.80;;;;110768;1251;41481;-61
2022/04/14 04:44:47;;;;;;;22.10;8.70;;;;;3.60;98035.40;;;;110622;1253;41376;-60
2022/04/14 04:47:20;;;;;;;24.80;9.80;;;;;3.68;98034.60;;;;110709;1251;41510;-59
2022/04/14 04:49:49;;;;;;;22.60;9.90;;;;;3.70;98035.80;;;;110759;1252;41140;-59
2022/04/14 04:52:18;;;;;;;19.40;8.80;;;;;3.70;98036.20;;;;110763;1251;41267;-60
2022/04/14 04:54:47;;;;;;;23.00;9.70;;;;;3.80;98033.80;;;;110661;1250;41149;-60
2022/04/14 04:57:16;;;;;;;23.30;10.10;;;;;3.90;98035.40;;;;110555;1250;41261;-60
2022/04/14 04:59:46;;;;;;;22.80;9.60;;;;;4.00;98028.80;;;;110607;1251;41153;-59
2022/04/14 05:02:15;;;;;;;28.00;11.40;;;;;4.10;98029.40;;;;110582;1250;41188;-60
2022/04/14 05:04:44;;;;;;;26.20;11.10;;;;;4.20;98030.60;;;;110727;1252;41465;-59
2022/04/14 05:07:14;;;;;;;23.30;9.90;;;;;4.30;98025.80;;;;110624;1252;42373;-60
2022/04/14 05:09:43;;;;;;;27.40;10.70;;;;;4.30;98031.20;;;;110665;1252;41550;-60
2022/04/14 05:12:12;;;;;;;20.50;10.00;;;;;4.40;98032.00;;;;110685;1251;41172;-60
2022/04/14 05:14:42;;;;;;;21.30;9.50;;;;;4.50;98029.80;;;;110672;1250;41274;-60
2022/04/14 05:17:12;;;;;;;16.50;7.90;;;;;4.66;98038.40;;;;110729;1252;41706;-60
2022/04/14 05:19:42;;;;;;;18.40;8.20;;;;;4.76;98036.60;;;;110745;1252;41623;-59
2022/04/14 05:22:11;;;;;;;16.50;7.10;;;;;4.90;98038.40;;;;110654;1252;42146;-59
2022/04/14 05:24:40;;;;;;;15.20;7.40;;;;;5.00;98040.80;;;;110758;1251;42186;-59
2022/04/14 05:27:10;;;;;;;21.60;9.80;;;;;5.10;98044.20;;;;110707;1251;41886;-60
2022/04/14 05:29:42;;;;;;;28.80;12.50;;;;;5.22;98051.60;;;;110821;1249;41356;-60
2022/04/14 05:32:12;;;;;;;28.10;11.50;;;;;5.30;98046.60;;;;110790;1249;41217;-59
2022/04/14 05:34:43;;;;;;;36.10;12.80;;;;;5.40;98042.60;;;;110795;1249;41615;-59
2022/04/14 05:37:14;;;;;;;27.00;12.20;;;;;5.48;98043.00;;;;110744;1249;41264;-59
2022/04/14 05:39:43;;;;;;;27.50;12.90;;;;;5.58;98048.80;;;;110697;1249;41507;-60
2022/04/14 05:42:12;;;;;;;25.20;10.90;;;;;5.60;98050.40;;;;110626;1252;41160;-59
2022/04/14 05:44:41;;;;;;;20.70;9.70;;;;;5.70;98051.20;;;;110632;1249;41158;-59
2022/04/14 05:47:10;;;;;;;21.60;8.80;;;;;5.74;98054.20;;;;110662;1250;41274;-59
2022/04/14 05:49:40;;;;;;;18.30;8.40;;;;;5.90;98050.40;;;;110626;1249;41258;-60
2022/04/14 05:52:09;;;;;;;18.90;8.50;;;;;6.00;98056.40;;;;110695;1250;41556;-60
2022/04/14 05:54:38;;;;;;;16.10;7.10;;;;;6.10;98056.60;;;;110734;1249;41210;-60
2022/04/14 05:57:07;;;;;;;17.10;7.70;;;;;6.30;98052.80;;;;110579;1252;41650;-59
2022/04/14 05:59:36;;;;;;;16.30;7.40;;;;;6.46;98052.20;;;;110727;1251;41159;-59
2022/04/14 06:02:05;;;;;;;12.50;6.20;;;;;6.60;98046.60;;;;110739;1249;41200;-59
2022/04/14 06:04:36;;;;;;;16.20;7.00;;;;;6.80;98047.20;;;;110755;1249;41250;-59
2022/04/14 06:07:05;;;;;;;16.10;7.00;;;;;7.00;98046.80;;;;110752;1249;41262;-60
2022/04/14 06:09:34;;;;;;;15.90;7.00;;;;;7.10;98042.00;;;;110805;1249;41715;-59
2022/04/14 06:12:04;;;;;;;15.90;7.50;;;;;7.30;98036.80;;;;110745;1250;41166;-59
2022/04/14 06:14:49;;;;;;;14.60;6.80;;;;;7.48;98035.20;;;;110690;1250;41165;-59
2022/04/14 06:17:18;;;;;;;;;;;;;7.60;98032.80;;;;110796;1249;41186;-58
2022/04/14 06:19:48;;;;;;;13.60;6.10;;;;;7.70;98034.20;;;;110725;1251;41157;-59
2022/04/14 06:22:18;;;;;;;13.40;5.60;;;;;7.90;98019.40;;;;110798;1251;41151;-60
2022/04/14 06:24:47;;;;;;;13.50;6.40;;;;;8.08;98023.40;;;;110631;1251;41159;-61
2022/04/14 06:27:16;;;;;;;13.20;6.30;;;;;8.26;98019.60;;;;110348;1250;516318;-60
2022/04/14 06:29:46;;;;;;;13.40;6.20;;;;;8.42;98016.80;;;;110806;1249;41134;-60
2022/04/14 06:32:16;;;;;;;11.90;5.30;;;;;8.60;98022.40;;;;110723;1249;41158;-60
2022/04/14 06:34:48;;;;;;;14.30;5.30;;;;;8.80;98019.00;;;;110629;1250;41884;-60
2022/04/14 06:37:17;;;;;;;12.10;4.90;;;;;8.98;98015.60;;;;110812;1249;41866;-60
2022/04/14 06:39:46;;;;;;;12.80;4.90;;;;;9.20;98011.60;;;;110697;1250;41920;-60
2022/04/14 06:42:16;;;;;;;12.70;5.00;;;;;9.40;98009.40;;;;110772;1250;41416;-60
2022/04/14 06:44:45;;;;;;;13.30;5.40;;;;;9.60;98005.40;;;;110569;1249;41267;-61
2022/04/14 06:47:14;;;;;;;13.10;4.80;;;;;9.80;98003.60;;;;110593;1252;41605;-62
2022/04/14 06:49:44;;;;;;;12.00;4.80;;;;;9.98;98001.20;;;;110828;1251;41149;-61
2022/04/14 06:52:14;;;;;;;15.00;5.00;;;;;10.10;97995.60;;;;110826;1250;41159;-61
2022/04/14 06:54:44;;;;;;;12.80;5.00;;;;;10.30;97993.20;;;;110777;1249;41262;-61
2022/04/14 06:57:13;;;;;;;10.20;4.40;;;;;10.50;97993.20;;;;110790;1249;41600;-61
2022/04/14 06:59:42;;;;;;;11.60;4.70;;;;;10.70;97999.20;;;;110758;1250;41591;-58
2022/04/14 07:02:12;;;;;;;13.30;4.70;;;;;10.90;97996.20;;;;110789;1252;42260;-60
2022/04/14 07:04:41;;;;;;;9.70;4.30;;;;;11.20;97993.60;;;;110973;1249;41142;-60
2022/04/14 07:07:10;;;;;;;14.50;4.80;;;;;11.34;97991.40;;;;111044;1250;41254;-60
2022/04/14 07:09:39;;;;;;;10.90;4.70;;;;;11.50;97990.40;;;;111051;1249;40892;-60
2022/04/14 07:12:10;;;;;;;10.00;3.80;;;;;11.60;97993.20;;;;111042;1250;41145;-60
2022/04/14 07:14:40;;;;;;;11.30;4.30;;;;;11.78;97997.60;;;;110885;1250;42078;-60
2022/04/14 07:17:10;;;;;;;10.70;3.80;;;;;11.90;98001.40;;;;110837;1249;41261;-60
2022/04/14 07:19:42;;;;;;;11.00;4.60;;;;;12.10;97996.80;;;;110663;1251;41293;-59
2022/04/14 07:22:17;;;;;;;10.40;4.30;;;;;12.30;98002.40;;;;110726;1251;41719;-60
2022/04/14 07:24:48;;;;;;;12.60;3.90;;;;;12.40;98000.60;;;;110796;1249;42254;-60
2022/04/14 07:27:20;;;;;;;14.00;5.20;;;;;12.50;97994.60;;;;110710;1252;41194;-60
2022/04/14 07:29:49;;;;;;;12.80;4.40;;;;;12.68;97997.40;;;;110650;1252;41012;-60
2022/04/14 07:32:19;;;;;;;11.10;4.40;;;;;12.80;97991.40;;;;110718;1252;41160;-60
2022/04/14 07:34:48;;;;;;;9.70;4.30;;;;;12.90;97990.40;;;;110678;1252;41410;-61
2022/04/14 07:37:18;;;;;;;10.80;4.00;;;;;13.00;97991.40;;;;110688;1252;41165;-60
2022/04/14 07:39:47;;;;;;;12.80;4.40;;;;;13.10;97993.40;;;;110698;1252;42068;-59
2022/04/14 07:42:16;;;;;;;10.60;3.80;;;;;13.30;97996.80;;;;110599;1251;41606;-59
2022/04/14 07:44:46;;;;;;;10.10;3.90;;;;;13.40;97996.80;;;;110750;1252;41498;-60
2022/04/14 07:47:15;;;;;;;9.40;3.60;;;;;13.60;97997.60;;;;110796;1251;41170;-60
2022/04/14 07:49:45;;;;;;;8.80;3.40;;;;;13.80;97993.40;;;;110671;1251;42094;-60
2022/04/14 07:52:14;;;;;;;10.10;3.50;;;;;13.90;97993.60;;;;110806;1250;41161;-60
2022/04/14 07:54:44;;;;;;;10.00;3.60;;;;;14.10;97992.00;;;;110688;1250;41192;-60
2022/04/14 07:57:14;;;;;;;8.90;3.30;;;;;14.24;97991.00;;;;110682;1252;41266;-60
2022/04/14 07:59:43;;;;;;;8.60;3.90;;;;;14.36;97991.20;;;;110602;1252;41605;-60
2022/04/14 08:02:13;;;;;;;12.70;4.50;;;;;14.56;97991.20;;;;110820;1249;42017;-60
2022/04/14 08:04:42;;;;;;;10.80;3.90;;;;;14.68;97993.40;;;;110615;1252;41151;-60
2022/04/14 08:07:11;;;;;;;11.40;3.70;;;;;14.70;97996.40;;;;110770;1249;41161;-60
2022/04/14 08:09:45;;;;;;;12.00;4.30;;;;;14.80;97998.80;;;;110775;1249;41156;-60
2022/04/14 08:12:14;;;;;;;11.70;4.30;;;;;14.90;98000.40;;;;110636;1252;41914;-60
2022/04/14 08:14:43;;;;;;;10.10;4.10;;;;;15.00;98004.20;;;;110579;1252;41614;-60
2022/04/14 08:17:13;;;;;;;11.50;5.00;;;;;15.16;98000.80;;;;110781;1251;41160;-60
2022/04/14 08:19:42;;;;;;;12.00;5.20;;;;;15.30;98003.40;;;;110436;1252;42056;-60
2022/04/14 08:22:13;;;;;;;13.20;5.00;;;;;15.40;98003.20;;;;110692;1252;41162;-60
2022/04/14 08:24:43;;;;;;;9.10;3.90;;;;;15.40;98008.80;;;;110777;1251;41270;-60
2022/04/14 08:27:12;;;;;;;14.40;5.60;;;;;15.40;97996.60;;;;110694;1252;41771;-60
2022/04/14 08:29:42;;;;;;;12.20;4.30;;;;;15.50;97991.80;;;;110554;1252;41271;-61
2022/04/14 08:32:11;;;;;;;10.20;3.50;;;;;15.50;97992.20;;;;110622;1252;41734;-60
2022/04/14 08:34:40;;;;;;;9.00;3.50;;;;;15.60;97982.40;;;;110704;1251;41158;-61
2022/04/14 08:37:10;;;;;;;10.20;3.90;;;;;15.70;97983.40;;;;110691;1252;41252;-60
2022/04/14 08:39:39;;;;;;;12.60;5.00;;;;;15.80;97981.20;;;;110677;1252;41178;-60
2022/04/14 08:42:13;;;;;;;10.40;4.10;;;;;15.90;97972.80;;;;110573;1252;41144;-61
2022/04/14 08:44:48;;;;;;;13.30;5.10;;;;;16.00;97967.80;;;;110696;1252;41162;-60
2022/04/14 08:47:20;;;;;;;11.10;4.50;;;;;16.04;97963.80;;;;110551;1253;41220;-60
2022/04/14 08:49:50;;;;;;;14.50;5.30;;;;;16.00;97969.00;;;;110557;1252;41121;-61
2022/04/14 08:52:21;;;;;;;13.80;6.90;;;;;16.10;97970.80;;;;110715;1251;41255;-62
2022/04/14 08:54:51;;;;;;;14.60;6.00;;;;;16.20;97972.20;;;;110534;1252;41148;-60
2022/04/14 08:57:20;;;;;;;12.00;4.80;;;;;16.20;97975.80;;;;110511;1252;41188;-61
2022/04/14 08:59:50;;;;;;;9.90;3.80;;;;;16.36;97971.80;;;;110651;1252;41273;-62
2022/04/14 09:02:21;;;;;;;9.80;3.40;;;;;16.50;97969.80;;;;110589;1252;41549;-61
2022/04/14 09:04:51;;;;;;;12.90;6.00;;;;;16.74;97968.20;;;;110657;1252;41140;-61
2022/04/14 09:07:21;;;;;;;12.80;4.30;;;;;17.10;97969.00;;;;110708;1252;41313;-61
2022/04/14 09:09:50;;;;;;;9.10;2.80;;;;;17.38;97965.80;;;;110607;1253;41162;-61
2022/04/14 09:12:20;;;;;;;8.10;3.40;;;;;17.88;97961.40;;;;110730;1251;41144;-62
2022/04/14 09:14:49;;;;;;;9.00;4.00;;;;;18.40;97958.40;;;;110623;1252;41165;-61
2022/04/14 09:17:18;;;;;;;11.50;2.80;;;;;19.44;97957.80;;;;110531;1252;41162;-61
2022/04/14 09:19:48;;;;;;;9.30;3.30;;;;;20.98;97946.20;;;;110867;1252;41270;-61
2022/04/14 09:22:17;;;;;;;9.40;3.30;;;;;22.50;97938.20;;;;110874;1249;41245;-61
2022/04/14 09:24:48;;;;;;;8.00;2.80;;;;;23.58;97935.80;;;;110823;1251;41943;-61
2022/04/14 09:27:29;;;;;;;7.30;3.00;;;;;24.44;97931.40;;;;110734;1251;41725;-60
2022/04/14 09:30:00;;;;;;;9.90;3.70;;;;;25.34;97929.20;;;;110660;1252;41174;-61
2022/04/14 09:32:30;;;;;;;8.80;3.60;;;;;25.66;97921.20;;;;110703;1252;41725;-61
2022/04/14 09:35:05;;;;;;;7.90;3.30;;;;;26.40;97921.00;;;;110618;1253;41213;-61
2022/04/14 09:37:35;;;;;;;9.60;3.00;;;;;26.16;97926.20;;;;110538;1253;42003;-61
2022/04/14 09:40:08;;;;;;;9.90;3.90;;;;;26.10;97917.00;;;;110638;1253;42470;-61
2022/04/14 09:42:43;;;;;;;7.20;2.90;;;;;25.50;97928.80;;;;110624;1251;41276;-61
2022/04/14 09:45:25;;;;;;;8.50;2.90;;;;;25.00;97933.80;;;;110495;1253;41524;-61
2022/04/14 09:48:14;;;;;;;7.10;2.80;;;;;25.32;97935.00;;;;110569;1251;41728;-61
2022/04/14 09:50:48;;;;;;;8.20;3.20;;;;;26.26;97932.40;;;;110518;1252;41274;-61
2022/04/14 09:53:21;;;;;;;7.20;2.90;;;;;27.16;97927.80;;;;110586;1253;41672;-61
2022/04/14 09:55:50;;;;;;;8.60;3.20;;;;;27.56;97925.40;;;;110633;1252;41263;-61
2022/04/14 09:58:20;;;;;;;8.40;3.20;;;;;28.42;97931.40;;;;110826;1251;41337;-61
2022/04/14 10:00:54;;;;;;;9.00;3.10;;;;;28.70;97920.60;;;;110696;1252;41274;-61
2022/04/14 10:03:24;;;;;;;7.70;2.70;;;;;29.58;97917.20;;;;110778;1251;41154;-61
2022/04/14 10:05:57;;;;;;;8.30;2.90;;;;;30.42;97919.40;;;;110749;1251;41649;-61
2022/04/14 10:08:29;;;;;;;8.80;3.10;;;;;30.90;97919.40;;;;110729;1251;41266;-61
2022/04/14 10:11:08;;;;;;;7.80;3.10;;;;;30.32;97919.00;;;;110655;1252;41909;-61
2022/04/14 10:13:38;;;;;;;7.40;2.70;;;;;29.48;97916.80;;;;110688;1252;41145;-61
2022/04/14 10:16:08;;;;;;;7.50;2.70;;;;;28.92;97909.80;;;;110649;1253;41189;-61
2022/04/14 10:18:38;;;;;;;7.50;3.00;;;;;28.76;97909.20;;;;110628;1252;41455;-61
2022/04/14 10:21:08;;;;;;;8.40;2.90;;;;;28.30;97913.60;;;;110623;1253;41797;-61
2022/04/14 10:23:37;;;;;;;6.40;2.20;;;;;28.00;97911.80;;;;110764;1252;41343;-61
2022/04/14 10:26:07;;;;;;;6.70;1.90;;;;;28.56;97912.60;;;;110559;1252;41169;-61
2022/04/14 10:28:37;;;;;;;5.60;1.90;;;;;29.30;97907.80;;;;110636;1252;41587;-61
2022/04/14 10:31:06;;;;;;;4.20;1.70;;;;;30.20;97911.40;;;;110594;1252;41158;-61
2022/04/14 10:33:35;;;;;;;6.60;2.10;;;;;30.60;97913.00;;;;110652;1252;41264;-61
2022/04/14 10:36:05;;;;;;;3.90;1.80;;;;;30.80;97911.20;;;;110523;1253;41267;-61
2022/04/14 10:38:38;;;;;;;4.70;1.80;;;;;31.28;97913.00;;;;110684;1252;41359;-60
2022/04/14 10:41:13;;;;;;;5.00;1.80;;;;;31.80;97913.00;;;;110525;1254;41766;-61
2022/04/14 10:43:46;;;;;;;7.00;1.80;;;;;32.30;97910.60;;;;110703;1252;41156;-61
2022/04/14 10:46:16;;;;;;;5.40;1.90;;;;;32.52;97906.00;;;;110689;1252;42289;-61
2022/04/14 10:48:48;;;;;;;5.50;2.20;;;;;32.26;97908.00;;;;110678;1252;41823;-61
2022/04/14 10:51:23;;;;;;;4.20;1.80;;;;;31.44;97902.80;;;;110561;1252;41161;-61
2022/04/14 10:53:56;;;;;;;;;;;;;30.92;97912.60;;;;110662;1252;41263;-61
2022/04/14 10:56:34;;;;;;;5.40;2.00;;;;;30.64;97908.20;;;;110616;1252;41210;-61
2022/04/14 10:59:31;;;;;;;5.10;1.90;;;;;30.00;97911.20;;;;110671;1252;41131;-62
2022/04/14 11:02:04;;;;;;;7.30;2.20;;;;;29.70;97914.40;;;;110620;1253;41199;-62
2022/04/14 11:04:50;;;;;;;5.90;1.90;;;;;29.58;97911.80;;;;110720;1252;41234;-62
2022/04/14 11:07:21;;;;;;;5.60;2.10;;;;;29.40;97913.80;;;;110545;1252;41645;-59
2022/04/14 11:09:59;;;;;;;5.20;2.00;;;;;29.40;97913.00;;;;110680;1252;41425;-60
2022/04/14 11:12:40;;;;;;;5.20;2.00;;;;;29.50;97908.40;;;;110639;1250;41164;-61
2022/04/14 11:15:10;;;;;;;5.40;2.20;;;;;29.62;97902.80;;;;110642;1252;41159;-60
2022/04/14 11:17:48;;;;;;;7.40;2.50;;;;;29.78;97902.20;;;;110560;1252;41659;-61
2022/04/14 11:20:30;;;;;;;9.10;2.30;;;;;29.84;97906.20;;;;110704;1250;41192;-61
2022/04/14 11:23:17;;;;;;;6.00;2.00;;;;;29.70;97905.80;;;;110735;1251;41162;-60
2022/04/14 11:25:49;;;;;;;4.70;2.00;;;;;29.86;97904.40;;;;110926;1250;41177;-61
2022/04/14 11:28:19;;;;;;;4.50;1.70;;;;;30.10;97904.80;;;;110790;1250;41983;-61
2022/04/14 11:31:05;;;;;;;4.90;2.00;;;;;30.40;97902.20;;;;110596;1253;41605;-61
2022/04/14 11:33:38;;;;;;;5.80;1.90;;;;;30.72;97894.80;;;;110736;1252;41863;-61
2022/04/14 11:36:19;;;;;;;6.20;2.20;;;;;31.00;97890.40;;;;110605;1253;41610;-61
2022/04/14 11:39:05;;;;;;;7.70;2.00;;;;;31.04;97882.20;;;;110647;1251;41318;-60
2022/04/14 11:41:44;;;;;;;6.20;1.90;;;;;31.30;97886.20;;;;110808;1251;41354;-60
2022/04/14 11:44:19;;;;;;;6.10;2.10;;;;;31.48;97885.40;;;;110823;1251;41151;-61
2022/04/14 11:46:51;;;;;;;4.10;1.80;;;;;31.56;97883.40;;;;110705;1251;41633;-61
2022/04/14 11:49:22;;;;;;;5.20;1.90;;;;;31.60;97875.20;;;;110684;1251;41958;-61
2022/04/14 11:51:53;;;;;;;6.10;2.10;;;;;31.70;97876.40;;;;110745;1251;42029;-61
2022/04/14 11:54:29;;;;;;;7.40;2.20;;;;;31.74;97880.20;;;;110844;1251;41248;-60
2022/04/14 11:57:12;;;;;;;7.50;2.20;;;;;31.70;97874.40;;;;110854;1251;41640;-61
2022/04/14 11:59:46;;;;;;;5.90;2.40;;;;;31.60;97874.80;;;;110694;1252;41147;-61
2022/04/14 12:02:22;;;;;;;6.80;2.50;;;;;31.60;97873.00;;;;110565;1253;41166;-60
2022/04/14 12:04:56;;;;;;;6.90;2.40;;;;;31.40;97871.80;;;;110584;1252;41134;-61
2022/04/14 12:07:30;;;;;;;7.30;2.60;;;;;31.34;97873.40;;;;110589;1252;41214;-62
2022/04/14 12:10:07;;;;;;;7.50;2.30;;;;;31.16;97869.40;;;;110651;1252;41162;-61
2022/04/14 12:12:37;;;;;;;6.00;2.50;;;;;30.90;97870.20;;;;110578;1254;41278;-62
2022/04/14 12:15:07;;;;;;;6.60;2.50;;;;;30.56;97869.60;;;;110569;1254;41630;-61
2022/04/14 12:17:37;;;;;;;6.60;2.40;;;;;30.20;97865.80;;;;110563;1252;41118;-61
2022/04/14 12:20:07;;;;;;;;;;;;;29.86;97867.00;;;;110675;1251;41136;-61
2022/04/14 12:22:37;;;;;;;6.30;2.30;;;;;29.70;97864.20;;;;110628;1253;41605;-61
2022/04/14 12:25:11;;;;;;;6.60;2.20;;;;;29.50;97872.00;;;;110761;1252;41480;-62
2022/04/14 12:27:48;;;;;;;5.50;2.20;;;;;29.30;97874.00;;;;110514;1252;41267;-61
2022/04/14 12:30:21;;;;;;;5.10;2.00;;;;;29.20;97869.80;;;;110750;1253;40910;-59